createdAt,value
2022-09-20T00:01:36.745Z,20.10
2022-09-20T00:04:05.189Z,20.08
2022-09-20T00:06:32.241Z,20.07
2022-09-20T00:08:59.533Z,20.06
2022-09-20T00:11:26.458Z,20.04
2022-09-20T00:13:53.163Z,20.06
2022-09-20T00:16:20.626Z,20.07
2022-09-20T00:18:53.625Z,20.11
2022-09-20T00:21:20.998Z,20.04
2022-09-20T00:23:47.328Z,20.05
2022-09-20T00:26:17.514Z,20.04
2022-09-20T00:28:44.086Z,20.04
2022-09-20T00:31:10.786Z,20.07
2022-09-20T00:33:55.469Z,20.05
2022-09-20T00:36:21.777Z,20.03
2022-09-20T00:38:48.092Z,20.04
2022-09-20T00:41:14.407Z,20.05
2022-09-20T00:43:41.408Z,20.01
2022-09-20T00:46:19.831Z,20.02
2022-09-20T00:48:46.330Z,20.02
2022-09-20T00:51:13.777Z,19.96
2022-09-20T00:53:40.996Z,19.95
2022-09-20T00:56:08.853Z,19.96
2022-09-20T00:58:37.756Z,19.95
2022-09-20T01:01:04.129Z,19.95
2022-09-20T01:03:31.620Z,19.94
2022-09-20T01:05:57.938Z,19.93
2022-09-20T01:08:25.229Z,19.94
2022-09-20T01:10:51.851Z,19.92
2022-09-20T01:13:18.157Z,19.90
2022-09-20T01:15:44.863Z,19.93
2022-09-20T01:18:11.178Z,20.02
2022-09-20T01:20:38.909Z,19.96
2022-09-20T01:23:23.950Z,19.95
2022-09-20T01:26:08.842Z,19.94
2022-09-20T01:28:35.168Z,19.93
2022-09-20T01:31:18.189Z,19.92
2022-09-20T01:33:46.845Z,19.88
2022-09-20T01:36:14.041Z,19.93
2022-09-20T01:38:43.378Z,19.91
2022-09-20T01:41:18.025Z,19.89
2022-09-20T01:43:58.908Z,19.92
2022-09-20T01:46:28.824Z,19.91
2022-09-20T01:48:56.348Z,19.92
2022-09-20T01:51:29.609Z,19.94
2022-09-20T01:54:01.524Z,19.90
2022-09-20T01:56:39.097Z,19.90
2022-09-20T01:59:24.909Z,19.89
2022-09-20T02:01:54.221Z,19.88
2022-09-20T02:04:29.889Z,19.90
2022-09-20T02:07:14.946Z,19.88
2022-09-20T02:09:56.974Z,19.89
2022-09-20T02:12:27.120Z,19.88
2022-09-20T02:15:07.051Z,19.87
2022-09-20T02:17:34.599Z,19.98
2022-09-20T02:20:03.655Z,19.93
2022-09-20T02:22:29.971Z,20.00
2022-09-20T02:25:15.253Z,19.95
2022-09-20T02:28:00.315Z,19.93
2022-09-20T02:30:44.787Z,19.97
2022-09-20T02:33:12.926Z,20.00
2022-09-20T02:35:39.173Z,20.01
2022-09-20T02:38:16.025Z,19.99
2022-09-20T02:40:51.340Z,19.98
2022-09-20T02:43:21.362Z,19.96
2022-09-20T02:45:53.724Z,19.98
2022-09-20T02:48:21.682Z,19.99
2022-09-20T02:50:54.912Z,20.02
2022-09-20T02:53:39.949Z,19.99
2022-09-20T02:56:13.319Z,19.97
2022-09-20T02:58:57.457Z,19.97
2022-09-20T03:01:26.633Z,19.96
2022-09-20T03:03:58.463Z,19.96
2022-09-20T03:06:28.267Z,19.95
2022-09-20T03:09:00.678Z,19.96
2022-09-20T03:11:32.990Z,19.96
2022-09-20T03:14:05.402Z,19.96
2022-09-20T03:16:52.402Z,19.87
2022-09-20T03:19:23.420Z,19.93
2022-09-20T03:21:59.694Z,19.95
2022-09-20T03:24:39.837Z,19.94
2022-09-20T03:27:24.666Z,19.94
2022-09-20T03:29:50.897Z,19.95
2022-09-20T03:32:26.764Z,19.97
2022-09-20T03:35:07.069Z,19.96
2022-09-20T03:37:55.806Z,19.96
2022-09-20T03:40:44.188Z,19.96
2022-09-20T03:43:18.404Z,19.96
2022-09-20T03:45:53.198Z,19.93
2022-09-20T03:48:19.472Z,19.91
2022-09-20T03:50:54.653Z,19.83
2022-09-20T03:53:41.937Z,19.83
2022-09-20T03:56:13.325Z,19.82
2022-09-20T03:58:58.547Z,19.83
2022-09-20T04:01:45.245Z,19.83
2022-09-20T04:04:25.683Z,19.82
2022-09-20T04:07:05.213Z,19.81
2022-09-20T04:09:47.598Z,19.81
2022-09-20T04:12:27.113Z,19.81
2022-09-20T04:15:12.572Z,19.83
2022-09-20T04:17:41.594Z,19.86
2022-09-20T04:20:13.658Z,19.90
2022-09-20T04:22:40.061Z,19.88
2022-09-20T04:25:19.955Z,19.82
2022-09-20T04:27:47.175Z,19.79
2022-09-20T04:30:17.263Z,19.78
2022-09-20T04:32:48.034Z,19.90
2022-09-20T04:35:54.170Z,19.90
2022-09-20T04:38:20.651Z,19.91
2022-09-20T04:40:55.544Z,19.89
2022-09-20T04:43:37.851Z,19.92
2022-09-20T04:46:19.960Z,19.87
2022-09-20T04:48:46.279Z,19.87
2022-09-20T04:51:24.011Z,19.85
2022-09-20T04:53:55.500Z,19.86
2022-09-20T04:56:40.270Z,19.85
2022-09-20T04:59:10.202Z,19.87
2022-09-20T05:01:43.491Z,19.86
2022-09-20T05:04:28.338Z,19.81
2022-09-20T05:07:13.583Z,19.79
2022-09-20T05:09:55.184Z,19.78
2022-09-20T05:12:39.851Z,19.76
2022-09-20T05:15:11.676Z,19.77
2022-09-20T05:18:10.757Z,19.77
2022-09-20T05:21:03.524Z,19.78
2022-09-20T05:23:33.292Z,19.75
2022-09-20T05:26:09.778Z,19.76
2022-09-20T05:28:39.017Z,19.78
2022-09-20T05:31:08.097Z,19.76
2022-09-20T05:33:44.911Z,19.74
2022-09-20T05:36:23.207Z,19.75
2022-09-20T05:38:56.377Z,19.75
2022-09-20T05:41:45.091Z,19.76
2022-09-20T05:44:15.815Z,19.76
2022-09-20T05:46:50.011Z,19.74
2022-09-20T05:49:19.670Z,19.76
2022-09-20T05:51:53.798Z,19.75
2022-09-20T05:54:29.524Z,19.74
2022-09-20T05:57:02.281Z,19.75
2022-09-20T05:59:40.016Z,19.74
2022-09-20T06:02:21.525Z,19.73
2022-09-20T06:04:51.871Z,19.73
2022-09-20T06:07:38.546Z,19.72
2022-09-20T06:10:24.618Z,19.75
2022-09-20T06:13:09.513Z,19.76
2022-09-20T06:15:50.330Z,19.74
2022-09-20T06:18:16.571Z,19.75
2022-09-20T06:20:56.157Z,19.74
2022-09-20T06:23:22.494Z,19.73
2022-09-20T06:25:50.957Z,19.72
2022-09-20T06:28:21.111Z,19.73
2022-09-20T06:30:51.162Z,19.72
2022-09-20T06:33:17.461Z,19.72
2022-09-20T06:35:53.829Z,19.73
2022-09-20T06:39:00.534Z,19.70
2022-09-20T06:41:28.242Z,19.72
2022-09-20T06:43:59.032Z,19.70
2022-09-20T06:46:28.843Z,19.70
2022-09-20T06:48:55.478Z,19.68
2022-09-20T06:51:22.633Z,19.69
2022-09-20T06:53:48.949Z,19.70
2022-09-20T06:56:16.780Z,19.73
2022-09-20T06:58:43.112Z,19.71
2022-09-20T07:01:09.496Z,19.70
2022-09-20T07:03:35.842Z,19.71
2022-09-20T07:06:04.587Z,19.70
2022-09-20T07:08:30.980Z,19.70
2022-09-20T07:10:57.288Z,19.69
2022-09-20T07:13:24.049Z,19.71
2022-09-20T07:15:51.129Z,19.66
2022-09-20T07:18:17.450Z,19.68
2022-09-20T07:20:44.624Z,19.66
2022-09-20T07:23:10.963Z,19.67
2022-09-20T07:25:37.333Z,19.69
2022-09-20T07:28:03.656Z,19.67
2022-09-20T07:30:29.990Z,19.69
2022-09-20T07:32:56.304Z,19.70
2022-09-20T07:35:22.600Z,19.67
2022-09-20T07:37:48.904Z,19.66
2022-09-20T07:40:15.787Z,19.69
2022-09-20T07:42:42.362Z,19.67
2022-09-20T07:45:08.961Z,19.67
2022-09-20T07:47:35.535Z,19.67
2022-09-20T07:50:02.503Z,19.66
2022-09-20T07:52:29.018Z,19.65
2022-09-20T07:54:56.142Z,19.64
2022-09-20T07:57:22.487Z,19.64
2022-09-20T07:59:48.808Z,19.67
2022-09-20T08:02:15.395Z,19.68
2022-09-20T08:04:41.732Z,19.65
2022-09-20T08:07:08.058Z,19.65
2022-09-20T08:09:34.369Z,19.64
2022-09-20T08:14:05.342Z,19.67
2022-09-20T08:14:47.865Z,19.64
2022-09-20T08:17:14.176Z,19.65
2022-09-20T08:19:40.610Z,19.65
2022-09-20T08:22:07.043Z,19.64
2022-09-20T08:24:33.389Z,19.63
2022-09-20T08:26:59.741Z,19.64
2022-09-20T08:29:26.055Z,19.63
2022-09-20T08:31:53.014Z,19.63
2022-09-20T08:34:19.370Z,19.67
2022-09-20T08:36:46.937Z,19.65
2022-09-20T08:42:12.821Z,19.66
2022-09-20T08:44:45.325Z,19.67
2022-09-20T08:47:21.874Z,19.66
2022-09-20T08:49:48.291Z,19.68
2022-09-20T08:52:18.787Z,19.64
2022-09-20T08:54:45.109Z,19.65
2022-09-20T08:57:14.094Z,19.64
2022-09-20T08:59:40.830Z,19.69
2022-09-20T09:02:17.124Z,19.72
2022-09-20T09:04:44.696Z,19.72
2022-09-20T09:07:14.309Z,19.74
2022-09-20T09:09:41.893Z,19.73
2022-09-20T09:12:13.983Z,19.70
2022-09-20T09:14:49.423Z,19.73
2022-09-20T09:17:16.629Z,19.74
2022-09-20T09:19:46.850Z,19.79
2022-09-20T09:22:17.486Z,19.80
2022-09-20T09:24:43.831Z,19.79
2022-09-20T09:27:17.401Z,19.82
2022-09-20T09:29:50.957Z,19.80
2022-09-20T09:32:21.670Z,19.78
2022-09-20T09:34:48.017Z,19.79
2022-09-20T09:37:24.171Z,19.79
2022-09-20T09:40:07.382Z,19.81
2022-09-20T09:42:33.781Z,19.84
2022-09-20T09:45:12.718Z,19.82
2022-09-20T09:47:39.029Z,19.83
2022-09-20T09:50:09.720Z,19.85
2022-09-20T09:52:36.477Z,19.87
2022-09-20T09:55:05.458Z,19.87
2022-09-20T09:57:34.386Z,19.88
2022-09-20T10:00:18.622Z,19.89
2022-09-20T10:03:00.392Z,19.90
2022-09-20T10:05:38.811Z,19.89
2022-09-20T10:08:10.689Z,19.90
2022-09-20T10:10:41.409Z,19.90
2022-09-20T10:13:19.878Z,19.90
2022-09-20T10:15:55.401Z,19.91
2022-09-20T10:18:27.069Z,19.92
2022-09-20T10:20:59.341Z,19.92
2022-09-20T10:26:33.914Z,19.93
2022-09-20T10:29:04.082Z,19.93
2022-09-20T10:31:36.763Z,19.95
2022-09-20T10:34:22.536Z,19.96
2022-09-20T10:36:53.505Z,19.97
2022-09-20T10:39:29.003Z,19.99
2022-09-20T10:42:39.035Z,19.97
2022-09-20T10:45:44.358Z,19.98
2022-09-20T10:48:12.283Z,19.99
2022-09-20T10:50:38.777Z,20.00
2022-09-20T10:53:09.091Z,19.98
2022-09-20T10:55:47.323Z,19.98
2022-09-20T10:58:31.850Z,19.99
2022-09-20T11:01:02.159Z,20.00
2022-09-20T11:03:33.469Z,19.97
2022-09-20T11:06:18.729Z,20.01
2022-09-20T11:08:45.827Z,20.00
2022-09-20T11:11:21.361Z,20.02
2022-09-20T11:13:47.634Z,20.02
2022-09-20T11:16:20.068Z,20.02
2022-09-20T11:18:48.266Z,20.02
2022-09-20T11:21:16.506Z,20.05
2022-09-20T11:23:45.052Z,20.04
2022-09-20T11:26:12.831Z,20.04
2022-09-20T11:28:40.682Z,20.04
2022-09-20T11:31:07.855Z,20.04
2022-09-20T11:33:41.433Z,20.05
2022-09-20T11:36:09.619Z,20.04
2022-09-20T11:38:53.005Z,20.05
2022-09-20T11:41:23.056Z,20.05
2022-09-20T11:43:49.369Z,20.05
2022-09-20T11:46:19.930Z,20.05
2022-09-20T11:48:47.383Z,20.03
2022-09-20T11:51:19.599Z,20.05
2022-09-20T11:53:57.917Z,20.05
2022-09-20T11:56:27.681Z,20.05
2022-09-20T11:59:00.746Z,20.06
2022-09-20T12:01:37.136Z,20.07
2022-09-20T12:04:31.284Z,20.07
2022-09-20T12:07:03.483Z,20.06
2022-09-20T12:09:38.311Z,20.06
2022-09-20T12:12:14.551Z,20.06
2022-09-20T12:14:42.161Z,20.07
2022-09-20T12:17:28.418Z,20.08
2022-09-20T12:19:54.757Z,20.07
2022-09-20T12:22:27.317Z,20.08
2022-09-20T12:25:13.521Z,20.08
2022-09-20T12:27:39.775Z,20.08
2022-09-20T12:30:15.914Z,20.06
2022-09-20T12:32:43.451Z,20.06
2022-09-20T12:35:28.809Z,20.09
2022-09-20T12:37:55.515Z,20.08
2022-09-20T12:40:22.164Z,20.09
2022-09-20T12:42:53.793Z,20.08
2022-09-20T12:45:20.102Z,20.08
2022-09-20T12:47:53.005Z,20.07
2022-09-20T12:50:37.702Z,20.07
2022-09-20T12:53:04.204Z,20.08
2022-09-20T12:55:36.710Z,20.06
2022-09-20T12:58:13.328Z,20.07
2022-09-20T13:00:59.253Z,20.08
2022-09-20T13:03:29.623Z,20.04
2022-09-20T13:06:12.392Z,20.01
2022-09-20T13:08:54.062Z,20.00
2022-09-20T13:11:20.877Z,19.99
2022-09-20T13:13:51.590Z,20.00
2022-09-20T13:16:26.308Z,20.00
2022-09-20T13:19:04.148Z,19.99
2022-09-20T13:21:31.003Z,19.99
2022-09-20T13:23:57.326Z,20.02
2022-09-20T13:26:27.450Z,20.00
2022-09-20T13:28:54.517Z,19.97
2022-09-20T13:31:20.854Z,19.98
2022-09-20T13:33:47.494Z,19.97
2022-09-20T13:36:13.811Z,19.99
2022-09-20T13:38:40.319Z,20.00
2022-09-20T13:41:09.143Z,19.99
2022-09-20T13:43:42.891Z,20.00
2022-09-20T13:46:09.233Z,20.01
2022-09-20T13:48:35.590Z,20.01
2022-09-20T13:51:02.408Z,20.00
2022-09-20T13:53:41.023Z,19.99
2022-09-20T13:56:16.794Z,20.00
2022-09-20T13:58:43.103Z,19.99
2022-09-20T14:01:19.531Z,19.99
2022-09-20T14:03:45.868Z,20.00
2022-09-20T14:06:13.510Z,19.99
2022-09-20T14:08:43.808Z,19.99
2022-09-20T14:11:10.310Z,19.99
2022-09-20T14:13:40.213Z,19.99
2022-09-20T14:16:06.703Z,19.99
2022-09-20T14:18:33.006Z,19.97
2022-09-20T14:21:00.142Z,19.98
2022-09-20T14:23:26.978Z,19.98
2022-09-20T14:26:06.270Z,20.00
2022-09-20T14:28:32.600Z,20.04
2022-09-20T14:31:06.119Z,20.07
2022-09-20T14:33:32.663Z,20.05
2022-09-20T14:35:59.279Z,20.05
2022-09-20T14:38:26.046Z,20.09
2022-09-20T14:40:52.639Z,20.09
2022-09-20T14:43:26.367Z,20.12
2022-09-20T14:45:54.204Z,20.13
2022-09-20T14:48:21.321Z,20.14
2022-09-20T14:51:07.716Z,20.13
2022-09-20T14:53:37.082Z,20.13
2022-09-20T14:56:06.429Z,20.11
2022-09-20T14:58:33.126Z,20.14
2022-09-20T15:01:05.804Z,20.14
2022-09-20T15:03:39.000Z,20.14
2022-09-20T15:06:06.421Z,20.15
2022-09-20T15:08:36.589Z,20.16
2022-09-20T15:11:03.039Z,20.16
2022-09-20T15:13:29.347Z,20.15
2022-09-20T15:15:55.660Z,20.15
2022-09-20T15:18:22.735Z,20.17
2022-09-20T15:20:49.561Z,20.16
2022-09-20T15:23:15.882Z,20.15
2022-09-20T15:25:42.208Z,20.16
2022-09-20T15:28:10.979Z,20.16
2022-09-20T15:30:37.482Z,20.16
2022-09-20T15:33:03.843Z,20.17
2022-09-20T15:35:30.156Z,20.16
2022-09-20T15:37:56.487Z,20.16
2022-09-20T15:40:22.831Z,20.15
2022-09-20T15:42:49.224Z,20.15
2022-09-20T15:45:15.533Z,20.15
2022-09-20T15:47:41.848Z,20.15
2022-09-20T15:50:08.615Z,20.17
2022-09-20T15:52:36.136Z,20.17
2022-09-20T15:55:03.740Z,20.16
2022-09-20T15:57:30.799Z,20.15
2022-09-20T15:59:58.622Z,20.16
2022-09-20T16:02:25.083Z,20.16
2022-09-20T16:04:54.640Z,20.16
2022-09-20T16:07:25.571Z,20.16
2022-09-20T16:09:52.626Z,20.16
2022-09-20T16:12:19.395Z,20.16
2022-09-20T16:14:45.719Z,20.15
2022-09-20T16:17:12.075Z,20.13
2022-09-20T16:19:38.553Z,20.14
2022-09-20T16:22:04.884Z,20.16
2022-09-20T16:24:33.005Z,20.15
2022-09-20T16:27:00.704Z,20.14
2022-09-20T16:29:29.307Z,20.12
2022-09-20T16:31:55.912Z,20.11
2022-09-20T16:34:31.093Z,20.13
2022-09-20T16:36:58.592Z,20.13
2022-09-20T16:39:27.467Z,20.13
2022-09-20T16:41:54.390Z,20.12
2022-09-20T16:44:20.702Z,20.11
2022-09-20T16:46:47.409Z,20.08
2022-09-20T16:49:14.115Z,20.09
2022-09-20T16:51:41.211Z,20.06
2022-09-20T16:54:12.082Z,20.08
2022-09-20T16:56:39.065Z,20.06
2022-09-20T16:59:05.486Z,20.09
2022-09-20T17:01:31.957Z,20.08
2022-09-20T17:03:58.515Z,20.08
2022-09-20T17:06:24.849Z,20.08
2022-09-20T17:08:55.567Z,20.07
2022-09-20T17:11:25.249Z,20.06
2022-09-20T17:13:51.934Z,20.05
2022-09-20T17:16:19.361Z,20.08
2022-09-20T17:18:45.704Z,20.09
2022-09-20T17:21:13.727Z,20.08
2022-09-20T17:23:48.711Z,20.10
2022-09-20T17:26:18.046Z,20.11
2022-09-20T17:28:45.022Z,20.11
2022-09-20T17:31:12.045Z,20.09
2022-09-20T17:33:38.434Z,20.09
2022-09-20T17:36:04.782Z,20.09
2022-09-20T17:38:33.479Z,20.08
2022-09-20T17:41:00.442Z,20.09
2022-09-20T17:43:28.840Z,20.08
2022-09-20T17:45:56.593Z,20.07
2022-09-20T17:48:25.894Z,20.05
2022-09-20T17:50:56.004Z,20.05
2022-09-20T17:53:22.309Z,20.06
2022-09-20T17:55:54.854Z,20.05
2022-09-20T17:58:21.343Z,20.05
2022-09-20T18:00:47.718Z,20.04
2022-09-20T18:03:14.850Z,20.05
2022-09-20T18:05:41.185Z,20.06
2022-09-20T18:08:07.523Z,20.06
2022-09-20T18:10:33.860Z,20.05
2022-09-20T18:13:01.009Z,20.05
2022-09-20T18:15:27.746Z,20.07
2022-09-20T18:17:54.652Z,20.07
2022-09-20T18:20:21.022Z,20.06
2022-09-20T18:22:47.703Z,20.06
2022-09-20T18:25:14.006Z,20.03
2022-09-20T18:27:40.350Z,20.03
2022-09-20T18:30:06.941Z,20.02
2022-09-20T18:32:33.250Z,20.00
2022-09-20T18:34:59.552Z,20.02
2022-09-20T18:37:25.890Z,20.02
2022-09-20T18:39:52.204Z,20.10
2022-09-20T18:42:18.518Z,20.09
2022-09-20T18:44:45.950Z,20.06
2022-09-20T18:47:12.290Z,20.02
2022-09-20T18:49:38.593Z,20.02
2022-09-20T18:52:05.415Z,20.02
2022-09-20T18:54:33.253Z,20.00
2022-09-20T18:56:59.782Z,20.00
2022-09-20T18:59:26.584Z,20.02
2022-09-20T19:01:58.542Z,20.00
2022-09-20T19:04:30.812Z,20.00
2022-09-20T19:07:09.216Z,20.00
2022-09-20T19:09:49.592Z,20.00
2022-09-20T19:12:35.505Z,20.01
2022-09-20T19:15:01.764Z,20.01
2022-09-20T19:17:40.292Z,20.00
2022-09-20T19:20:11.874Z,20.00
2022-09-20T19:22:51.464Z,19.99
2022-09-20T19:25:19.336Z,20.01
2022-09-20T19:27:45.831Z,19.99
2022-09-20T19:30:12.938Z,19.98
2022-09-20T19:32:39.445Z,20.01
2022-09-20T19:35:05.955Z,20.00
2022-09-20T19:37:52.824Z,19.97
2022-09-20T19:40:25.289Z,20.01
2022-09-20T19:43:09.088Z,19.98
2022-09-20T19:45:55.556Z,20.00
2022-09-20T19:48:38.236Z,19.86
2022-09-20T19:51:05.334Z,18.98
2022-09-20T19:53:31.748Z,19.34
2022-09-20T19:56:03.421Z,19.65
2022-09-20T19:58:29.819Z,19.81
2022-09-20T20:00:57.911Z,19.86
2022-09-20T20:03:26.151Z,19.88
2022-09-20T20:05:54.793Z,19.86
2022-09-20T20:08:27.150Z,19.85
2022-09-20T20:10:53.387Z,19.87
2022-09-20T20:13:57.497Z,19.87
2022-09-20T20:16:25.199Z,19.88
2022-09-20T20:19:10.499Z,19.87
2022-09-20T20:21:40.028Z,19.85
2022-09-20T20:24:21.734Z,19.87
2022-09-20T20:26:48.068Z,19.86
2022-09-20T20:29:14.426Z,19.86
2022-09-20T20:31:40.782Z,19.86
2022-09-20T20:34:08.814Z,19.86
2022-09-20T20:36:35.470Z,19.87
2022-09-20T20:39:02.815Z,19.86
2022-09-20T20:41:31.831Z,19.87
2022-09-20T20:43:58.270Z,19.85
2022-09-20T20:46:25.191Z,19.85
2022-09-20T20:48:51.668Z,19.86
2022-09-20T20:51:18.968Z,19.85
2022-09-20T20:53:47.135Z,19.87
2022-09-20T20:56:17.222Z,19.86
2022-09-20T20:58:43.841Z,19.85
2022-09-20T21:01:11.183Z,19.85
2022-09-20T21:03:37.535Z,19.85
2022-09-20T21:06:04.497Z,19.85
2022-09-20T21:08:32.025Z,19.85
2022-09-20T21:11:02.418Z,19.84
2022-09-20T21:13:29.563Z,19.87
2022-09-20T21:16:02.496Z,19.84
2022-09-20T21:18:28.902Z,19.85
2022-09-20T21:20:55.214Z,19.85
2022-09-20T21:23:21.522Z,19.86
2022-09-20T21:25:49.071Z,19.85
2022-09-20T21:28:15.383Z,19.86
2022-09-20T21:30:41.760Z,19.86
2022-09-20T21:33:08.100Z,19.86
2022-09-20T21:35:34.406Z,19.84
2022-09-20T21:38:00.974Z,19.85
2022-09-20T21:40:27.350Z,19.85
2022-09-20T21:42:53.732Z,19.85
2022-09-20T21:45:24.759Z,19.83
2022-09-20T21:47:51.109Z,19.84
2022-09-20T21:50:17.421Z,19.84
2022-09-20T21:52:46.401Z,19.85
2022-09-20T21:55:12.705Z,19.83
2022-09-20T21:57:39.019Z,19.83
2022-09-20T22:00:05.746Z,19.83
2022-09-20T22:02:38.899Z,19.81
2022-09-20T22:05:05.222Z,19.81
2022-09-20T22:07:31.530Z,19.83
2022-09-20T22:09:57.857Z,19.83
2022-09-20T22:12:24.289Z,19.83
2022-09-20T22:14:50.598Z,19.82
2022-09-20T22:17:16.904Z,19.82
2022-09-20T22:19:43.579Z,19.81
2022-09-20T22:22:09.884Z,19.82
2022-09-20T22:24:36.281Z,19.82
2022-09-20T22:27:02.580Z,19.80
2022-09-20T22:29:28.883Z,19.80
2022-09-20T22:31:55.196Z,19.80
2022-09-20T22:34:21.754Z,19.80
2022-09-20T22:36:48.091Z,19.81
2022-09-20T22:39:14.718Z,19.81
2022-09-20T22:41:41.280Z,19.80
2022-09-20T22:44:07.606Z,19.80
2022-09-20T22:46:33.993Z,19.79
2022-09-20T22:49:00.306Z,19.80
2022-09-20T22:51:27.524Z,19.76
2022-09-20T22:53:53.846Z,19.78
2022-09-20T22:56:24.867Z,19.78
2022-09-20T22:58:51.915Z,19.79
2022-09-20T23:01:25.239Z,19.76
2022-09-20T23:03:58.428Z,19.77
2022-09-20T23:06:28.578Z,19.77
2022-09-20T23:08:59.078Z,19.78
2022-09-20T23:11:25.406Z,19.79
2022-09-20T23:13:58.218Z,19.78
2022-09-20T23:16:25.379Z,19.77
2022-09-20T23:18:52.063Z,19.80
2022-09-20T23:21:18.456Z,19.77
2022-09-20T23:23:44.765Z,19.78
2022-09-20T23:26:12.076Z,19.78
2022-09-20T23:28:38.826Z,19.76
2022-09-20T23:31:06.147Z,19.76
2022-09-20T23:33:32.527Z,19.76
2022-09-20T23:35:58.862Z,19.76
2022-09-20T23:38:25.386Z,19.75
2022-09-20T23:40:51.717Z,19.74
2022-09-20T23:43:18.033Z,19.71
2022-09-20T23:45:44.383Z,19.72
2022-09-20T23:48:10.717Z,19.73
2022-09-20T23:50:37.180Z,19.73
2022-09-20T23:53:03.527Z,19.70
2022-09-20T23:55:29.833Z,19.70
2022-09-20T23:57:59.033Z,19.73
